createdAt,value
2022-11-12T00:00:53.251Z,30.60
2022-11-12T00:01:47.245Z,29.36
2022-11-12T00:02:41.220Z,28.69
2022-11-12T00:03:36.241Z,28.42
2022-11-12T00:04:30.224Z,28.81
2022-11-12T00:05:24.226Z,28.52
2022-11-12T00:06:11.227Z,28.34
2022-11-12T00:06:45.297Z,28.81
2022-11-12T00:07:32.212Z,29.10
2022-11-12T00:08:06.263Z,29.11
2022-11-12T00:08:53.202Z,29.08
2022-11-12T00:09:27.233Z,28.54
2022-11-12T00:10:15.216Z,28.23
2022-11-12T00:10:49.260Z,28.52
2022-11-12T00:11:36.258Z,27.94
2022-11-12T00:12:10.263Z,29.09
2022-11-12T00:12:57.208Z,28.01
2022-11-12T00:13:31.308Z,27.56
2022-11-12T00:14:18.203Z,27.24
2022-11-12T00:14:52.299Z,27.05
2022-11-12T00:15:39.199Z,27.40
2022-11-12T00:16:13.236Z,26.42
2022-11-12T00:17:00.256Z,26.50
2022-11-12T00:17:34.254Z,26.69
2022-11-12T00:18:21.207Z,26.83
2022-11-12T00:18:55.234Z,25.77
2022-11-12T00:19:42.209Z,25.31
2022-11-12T00:20:16.233Z,25.08
2022-11-12T00:21:03.212Z,24.95
2022-11-12T00:21:37.234Z,25.35
2022-11-12T00:22:24.200Z,25.13
2022-11-12T00:22:58.239Z,25.41
2022-11-12T00:23:45.209Z,26.44
2022-11-12T00:24:19.243Z,27.71
2022-11-12T00:25:06.198Z,26.39
2022-11-12T00:25:40.287Z,25.79
2022-11-12T00:26:27.194Z,25.45
2022-11-12T00:27:02.281Z,24.77
2022-11-12T00:27:49.223Z,24.61
2022-11-12T00:28:23.434Z,24.74
2022-11-12T00:29:10.182Z,23.38
2022-11-12T00:29:44.231Z,22.87
2022-11-12T00:30:31.207Z,22.79
2022-11-12T00:31:05.233Z,23.51
2022-11-12T00:31:52.184Z,23.13
2022-11-12T00:32:26.339Z,22.58
2022-11-12T00:33:13.195Z,21.26
2022-11-12T00:33:49.323Z,20.30
2022-11-12T00:34:36.191Z,20.14
2022-11-12T00:35:13.863Z,20.33
2022-11-12T00:36:01.202Z,20.05
2022-11-12T00:36:35.220Z,20.41
2022-11-12T00:37:23.194Z,20.06
2022-11-12T00:38:03.304Z,20.34
2022-11-12T00:38:44.204Z,20.00
2022-11-12T00:39:24.256Z,19.33
2022-11-12T00:40:04.176Z,19.20
2022-11-12T00:40:44.245Z,18.80
2022-11-12T00:41:24.168Z,18.67
2022-11-12T00:42:04.241Z,19.45
2022-11-12T00:42:45.179Z,20.02
2022-11-12T00:43:25.266Z,19.36
2022-11-12T00:44:05.207Z,19.70
2022-11-12T00:44:45.300Z,19.89
2022-11-12T00:45:28.174Z,20.09
2022-11-12T00:46:08.228Z,19.86
2022-11-12T00:46:48.163Z,20.21
2022-11-12T00:47:28.209Z,20.21
2022-11-12T00:48:09.195Z,19.88
2022-11-12T00:48:49.220Z,19.81
2022-11-12T00:49:30.233Z,19.80
2022-11-12T00:50:10.216Z,19.58
2022-11-12T00:50:50.176Z,20.52
2022-11-12T00:51:30.206Z,20.54
2022-11-12T00:52:11.162Z,20.84
2022-11-12T00:52:51.268Z,21.02
2022-11-12T00:53:32.160Z,20.61
2022-11-12T00:54:13.206Z,20.17
2022-11-12T00:54:53.179Z,20.24
2022-11-12T00:55:33.310Z,20.31
2022-11-12T00:56:14.173Z,19.88
2022-11-12T00:56:55.235Z,19.60
2022-11-12T00:57:35.163Z,19.63
2022-11-12T00:58:29.169Z,19.59
2022-11-12T00:59:23.151Z,19.69
2022-11-12T01:00:13.165Z,18.66
2022-11-12T01:00:47.557Z,18.73
2022-11-12T01:01:34.161Z,18.98
2022-11-12T01:02:08.257Z,19.39
2022-11-12T01:02:55.163Z,19.88
2022-11-12T01:03:29.296Z,19.16
2022-11-12T01:04:17.171Z,18.91
2022-11-12T01:04:51.235Z,19.23
2022-11-12T01:05:40.186Z,18.90
2022-11-12T01:06:24.281Z,18.74
2022-11-12T01:07:11.208Z,18.89
2022-11-12T01:07:45.214Z,18.44
2022-11-12T01:08:32.178Z,18.70
2022-11-12T01:09:06.268Z,18.91
2022-11-12T01:09:53.154Z,19.00
2022-11-12T01:10:27.183Z,18.86
2022-11-12T01:11:20.188Z,18.85
2022-11-12T01:12:00.203Z,19.19
2022-11-12T01:12:40.158Z,18.86
2022-11-12T01:13:20.176Z,18.20
2022-11-12T01:14:08.162Z,18.31
2022-11-12T01:14:48.165Z,18.14
2022-11-12T01:15:29.155Z,18.26
2022-11-12T01:16:14.258Z,18.01
2022-11-12T01:16:54.181Z,17.90
2022-11-12T01:17:34.196Z,17.85
2022-11-12T01:18:14.139Z,18.38
2022-11-12T01:18:57.252Z,18.35
2022-11-12T01:19:37.126Z,18.90
2022-11-12T01:20:17.188Z,18.76
2022-11-12T01:20:58.123Z,18.56
2022-11-12T01:21:40.204Z,17.80
2022-11-12T01:22:20.174Z,17.89
2022-11-12T01:23:00.184Z,18.11
2022-11-12T01:23:43.145Z,18.31
2022-11-12T01:24:23.195Z,17.50
2022-11-12T01:25:03.152Z,17.67
2022-11-12T01:25:45.233Z,17.89
2022-11-12T01:26:28.172Z,17.58
2022-11-12T01:27:08.216Z,16.95
2022-11-12T01:27:48.161Z,16.91
2022-11-12T01:28:28.384Z,17.01
2022-11-12T01:29:10.141Z,16.86
2022-11-12T01:29:50.177Z,16.76
2022-11-12T01:30:30.129Z,16.60
2022-11-12T01:31:35.257Z,16.64
2022-11-12T01:32:16.139Z,16.45
2022-11-12T01:33:03.136Z,16.84
2022-11-12T01:33:59.132Z,16.86
2022-11-12T01:34:53.141Z,16.99
2022-11-12T01:35:47.135Z,16.85
2022-11-12T01:36:44.123Z,17.50
2022-11-12T01:37:38.130Z,17.44
2022-11-12T01:38:25.314Z,16.31
2022-11-12T01:39:00.296Z,16.16
2022-11-12T01:39:47.121Z,15.73
2022-11-12T01:40:21.209Z,15.39
2022-11-12T01:41:08.137Z,15.00
2022-11-12T01:41:45.224Z,14.49
2022-11-12T01:42:38.140Z,14.52
2022-11-12T01:43:20.192Z,14.06
2022-11-12T01:44:36.137Z,14.10
2022-11-12T01:45:26.196Z,14.00
2022-11-12T01:46:10.127Z,13.96
2022-11-12T01:47:05.244Z,14.50
2022-11-12T01:47:46.141Z,14.29
2022-11-12T01:49:13.266Z,14.52
2022-11-12T01:50:06.071Z,14.25
2022-11-12T01:50:50.209Z,13.49
2022-11-12T01:51:34.115Z,13.40
2022-11-12T01:52:48.172Z,13.20
2022-11-12T01:53:30.106Z,13.13
2022-11-12T01:54:14.184Z,12.88
2022-11-12T01:54:56.131Z,12.71
2022-11-12T01:55:41.152Z,12.64
2022-11-12T01:56:15.159Z,12.73
2022-11-12T01:56:50.316Z,12.75
2022-11-12T01:57:36.099Z,12.93
2022-11-12T01:58:18.155Z,12.41
2022-11-12T01:58:58.677Z,12.21
2022-11-12T01:59:47.095Z,12.44
2022-11-12T02:00:22.179Z,12.52
2022-11-12T02:01:03.175Z,11.90
2022-11-12T02:01:43.188Z,11.98
2022-11-12T02:02:23.110Z,12.54
2022-11-12T02:03:08.136Z,12.19
2022-11-12T02:03:48.088Z,11.23
2022-11-12T02:04:29.173Z,10.80
2022-11-12T02:05:12.100Z,10.98
2022-11-12T02:05:56.171Z,10.95
2022-11-12T02:06:36.153Z,11.11
2022-11-12T02:07:17.202Z,10.98
2022-11-12T02:07:58.099Z,10.71
2022-11-12T02:08:39.149Z,10.86
2022-11-12T02:09:20.099Z,10.82
2022-11-12T02:10:01.183Z,11.23
2022-11-12T02:10:42.112Z,10.51
2022-11-12T02:11:25.135Z,10.21
2022-11-12T02:12:06.103Z,10.34
2022-11-12T02:13:04.560Z,10.65
2022-11-12T02:14:04.117Z,10.45
2022-11-12T02:14:44.135Z,10.18
2022-11-12T02:15:24.094Z,10.47
2022-11-12T02:16:05.119Z,10.18
2022-11-12T02:16:48.091Z,10.00
2022-11-12T02:17:28.096Z,10.23
2022-11-12T02:18:02.212Z,9.61
2022-11-12T02:18:35.828Z,10.31
2022-11-12T02:19:22.067Z,10.49
2022-11-12T02:19:58.123Z,10.21
2022-11-12T02:20:37.343Z,10.55
2022-11-12T02:21:17.116Z,10.69
2022-11-12T02:21:51.115Z,10.24
2022-11-12T02:22:24.791Z,10.02
2022-11-12T02:23:05.086Z,10.48
2022-11-12T02:23:39.317Z,10.04
2022-11-12T02:24:12.633Z,10.10
2022-11-12T02:24:53.068Z,10.04
2022-11-12T02:25:30.150Z,9.35
2022-11-12T02:26:03.766Z,9.27
2022-11-12T02:26:50.104Z,10.05
2022-11-12T02:27:24.119Z,9.98
2022-11-12T02:27:59.214Z,9.85
2022-11-12T02:28:40.101Z,9.55
2022-11-12T02:29:14.106Z,9.64
2022-11-12T02:29:47.749Z,9.86
2022-11-12T02:30:51.082Z,9.99
2022-11-12T02:31:25.137Z,9.74
2022-11-12T02:31:58.752Z,9.59
2022-11-12T02:32:40.052Z,9.31
2022-11-12T02:33:14.156Z,8.98
2022-11-12T02:33:54.109Z,9.36
2022-11-12T02:34:34.115Z,9.39
2022-11-12T02:35:15.077Z,9.48
2022-11-12T02:35:55.112Z,9.60
2022-11-12T02:36:36.063Z,9.69
2022-11-12T02:37:16.322Z,9.44
2022-11-12T02:37:56.051Z,9.48
2022-11-12T02:38:36.100Z,9.69
2022-11-12T02:39:16.071Z,9.43
2022-11-12T02:39:56.129Z,9.74
2022-11-12T02:40:36.067Z,9.60
2022-11-12T02:41:16.158Z,9.68
2022-11-12T02:41:56.054Z,9.69
2022-11-12T02:42:36.113Z,9.84
2022-11-12T02:43:23.052Z,9.79
2022-11-12T02:43:57.334Z,9.45
2022-11-12T02:44:38.076Z,9.63
2022-11-12T02:45:18.101Z,9.59
2022-11-12T02:45:58.043Z,9.88
2022-11-12T02:46:38.162Z,9.76
2022-11-12T02:47:19.064Z,9.64
2022-11-12T02:47:59.127Z,9.52
2022-11-12T02:48:39.056Z,9.91
2022-11-12T02:49:19.093Z,9.86
2022-11-12T02:49:59.070Z,10.11
2022-11-12T02:50:39.080Z,9.95
2022-11-12T02:51:19.044Z,9.88
2022-11-12T02:51:59.084Z,10.31
2022-11-12T02:52:40.064Z,10.39
2022-11-12T02:53:20.156Z,10.06
2022-11-12T02:54:00.065Z,10.52
2022-11-12T02:54:40.131Z,10.55
2022-11-12T02:55:20.096Z,11.81
2022-11-12T02:56:00.116Z,12.75
2022-11-12T02:56:42.044Z,13.65
2022-11-12T02:57:22.099Z,14.70
2022-11-12T02:58:06.037Z,16.85
2022-11-12T02:58:46.073Z,18.59
2022-11-12T02:59:26.052Z,18.23
2022-11-12T03:00:06.100Z,18.66
2022-11-12T03:00:46.162Z,19.08
2022-11-12T03:01:26.183Z,19.48
2022-11-12T03:02:06.039Z,20.30
2022-11-12T03:02:58.926Z,23.80
2022-11-12T03:03:40.048Z,27.81
2022-11-12T03:04:20.085Z,29.56
2022-11-12T03:05:00.038Z,29.34
2022-11-12T03:05:41.086Z,29.13
2022-11-12T03:06:21.082Z,28.61
2022-11-12T03:07:01.144Z,27.55
2022-11-12T03:07:41.043Z,27.66
2022-11-12T03:08:21.071Z,26.65
2022-11-12T03:09:02.036Z,26.30
2022-11-12T03:09:42.088Z,26.31
2022-11-12T03:10:22.026Z,25.51
2022-11-12T03:11:02.064Z,23.42
2022-11-12T03:11:43.030Z,22.24
2022-11-12T03:12:23.082Z,21.02
2022-11-12T03:13:05.065Z,20.04
2022-11-12T03:13:46.180Z,19.09
2022-11-12T03:14:27.020Z,18.84
2022-11-12T03:15:07.067Z,17.61
2022-11-12T03:15:47.020Z,15.76
2022-11-12T03:16:27.075Z,15.02
2022-11-12T03:17:07.051Z,14.43
2022-11-12T03:17:47.107Z,14.05
2022-11-12T03:18:27.266Z,13.81
2022-11-12T03:19:08.097Z,13.38
2022-11-12T03:19:49.043Z,12.50
2022-11-12T03:20:30.016Z,12.73
2022-11-12T03:21:11.024Z,13.20
2022-11-12T03:21:51.069Z,15.18
2022-11-12T03:22:31.043Z,16.20
2022-11-12T03:23:15.126Z,14.14
2022-11-12T03:23:55.015Z,13.10
2022-11-12T03:24:35.064Z,13.27
2022-11-12T03:25:16.036Z,14.31
2022-11-12T03:25:56.073Z,14.19
2022-11-12T03:26:36.212Z,14.54
2022-11-12T03:27:16.065Z,15.11
2022-11-12T03:28:02.039Z,15.13
2022-11-12T03:28:42.091Z,15.80
2022-11-12T03:29:22.033Z,15.75
2022-11-12T03:30:02.049Z,17.26
2022-11-12T03:30:46.000Z,18.79
2022-11-12T03:31:27.045Z,18.85
2022-11-12T03:32:07.027Z,19.30
2022-11-12T03:32:47.169Z,19.14
2022-11-12T03:33:27.048Z,18.60
2022-11-12T03:34:07.039Z,17.73
2022-11-12T03:34:47.268Z,17.06
2022-11-12T03:35:28.034Z,16.48
2022-11-12T03:36:09.005Z,16.09
2022-11-12T03:36:49.052Z,16.13
2022-11-12T03:37:29.014Z,16.00
2022-11-12T03:38:10.079Z,15.75
2022-11-12T03:38:50.041Z,14.80
2022-11-12T03:39:30.048Z,14.39
2022-11-12T03:40:11.028Z,14.09
2022-11-12T03:40:51.101Z,13.48
2022-11-12T03:41:31.995Z,12.77
2022-11-12T03:42:13.252Z,12.21
2022-11-12T03:42:55.029Z,12.01
2022-11-12T03:43:35.052Z,11.66
2022-11-12T03:44:15.020Z,11.75
2022-11-12T03:44:55.051Z,11.57
2022-11-12T03:45:35.006Z,11.30
2022-11-12T03:46:15.067Z,11.13
2022-11-12T03:46:56.015Z,12.24
2022-11-12T03:47:36.062Z,11.50
2022-11-12T03:48:16.003Z,10.75
2022-11-12T03:48:56.136Z,10.45
2022-11-12T03:49:36.011Z,10.75
2022-11-12T03:50:17.047Z,10.32
2022-11-12T03:50:56.988Z,10.41
2022-11-12T03:51:37.049Z,10.32
2022-11-12T03:52:18.003Z,9.90
2022-11-12T03:53:00.041Z,9.95
2022-11-12T03:53:39.980Z,10.30
2022-11-12T03:54:20.128Z,12.00
2022-11-12T03:55:00.013Z,14.29
2022-11-12T03:55:40.033Z,12.66
2022-11-12T03:56:19.990Z,11.43
2022-11-12T03:57:00.045Z,11.59
2022-11-12T03:57:40.967Z,11.14
2022-11-12T03:58:21.076Z,10.20
2022-11-12T03:59:00.992Z,12.15
2022-11-12T03:59:41.048Z,14.57
2022-11-12T04:00:22.030Z,13.54
2022-11-12T04:01:02.076Z,11.66
2022-11-12T04:01:41.970Z,13.56
2022-11-12T04:02:22.007Z,13.52
2022-11-12T04:03:02.971Z,12.36
2022-11-12T04:03:43.025Z,14.09
2022-11-12T04:04:23.004Z,14.46
2022-11-12T04:05:21.629Z,14.32
2022-11-12T04:06:20.993Z,13.52
2022-11-12T04:07:19.644Z,12.75
2022-11-12T04:08:41.982Z,14.46
2022-11-12T04:09:22.029Z,13.31
2022-11-12T04:10:01.985Z,12.66
2022-11-12T04:10:43.248Z,14.68
2022-11-12T04:11:25.007Z,14.11
2022-11-12T04:12:25.011Z,15.00
2022-11-12T04:13:23.968Z,14.85
2022-11-12T04:14:04.013Z,14.06
2022-11-12T04:14:44.963Z,14.64
2022-11-12T04:15:25.004Z,12.01
2022-11-12T04:16:30.994Z,12.35
2022-11-12T04:17:29.761Z,13.05
2022-11-12T04:18:29.055Z,13.88
2022-11-12T04:19:29.448Z,14.85
2022-11-12T04:20:27.962Z,12.29
2022-11-12T04:21:26.732Z,13.34
2022-11-12T04:22:14.969Z,14.44
2022-11-12T04:22:54.994Z,13.00
2022-11-12T04:23:34.947Z,12.82
2022-11-12T04:24:35.007Z,13.74
2022-11-12T04:25:33.956Z,12.18
2022-11-12T04:26:25.855Z,11.61
2022-11-12T04:27:05.966Z,11.69
2022-11-12T04:27:45.966Z,13.82
2022-11-12T04:28:20.014Z,13.51
2022-11-12T04:29:25.959Z,11.50
2022-11-12T04:30:18.802Z,11.39
2022-11-12T04:31:05.958Z,11.93
2022-11-12T04:31:40.007Z,12.64
2022-11-12T04:32:27.959Z,13.34
2022-11-12T04:33:08.999Z,13.76
2022-11-12T04:34:23.007Z,13.35
2022-11-12T04:35:17.937Z,13.82
2022-11-12T04:36:11.947Z,14.55
2022-11-12T04:37:05.955Z,14.96
2022-11-12T04:38:00.968Z,15.02
2022-11-12T04:38:40.979Z,15.16
2022-11-12T04:39:20.968Z,14.96
2022-11-12T04:40:01.947Z,14.82
2022-11-12T04:41:00.871Z,14.90
2022-11-12T04:41:59.976Z,14.93
2022-11-12T04:42:58.635Z,15.54
2022-11-12T04:43:58.000Z,15.95
2022-11-12T04:44:56.920Z,16.02
2022-11-12T04:45:36.947Z,15.19
2022-11-12T04:46:17.018Z,15.94
2022-11-12T04:46:56.935Z,15.36
2022-11-12T04:47:46.506Z,15.16
2022-11-12T04:48:29.436Z,16.52
2022-11-12T04:49:16.953Z,16.25
2022-11-12T04:50:11.952Z,16.64
2022-11-12T04:51:36.947Z,16.44
2022-11-12T04:52:31.933Z,18.67
2022-11-12T04:53:26.944Z,19.69
2022-11-12T04:54:20.956Z,19.56
2022-11-12T04:55:14.919Z,18.30
2022-11-12T04:56:10.919Z,16.19
2022-11-12T04:57:04.951Z,14.79
2022-11-12T04:58:00.796Z,12.91
2022-11-12T04:58:54.932Z,12.26
2022-11-12T04:59:41.934Z,12.29
2022-11-12T05:00:19.949Z,12.24
2022-11-12T05:01:07.967Z,13.61
2022-11-12T05:01:42.018Z,14.66
2022-11-12T05:02:28.917Z,14.54
2022-11-12T05:03:02.971Z,13.88
2022-11-12T05:03:49.939Z,14.32
2022-11-12T05:04:27.532Z,15.48
2022-11-12T05:05:07.972Z,13.24
2022-11-12T05:05:47.993Z,13.80
2022-11-12T05:06:46.974Z,14.89
2022-11-12T05:07:26.972Z,14.01
2022-11-12T05:08:08.918Z,13.60
2022-11-12T05:08:48.971Z,15.35
2022-11-12T05:09:34.932Z,15.46
2022-11-12T05:10:22.961Z,15.45
2022-11-12T05:11:16.946Z,15.63
2022-11-12T05:12:10.910Z,19.33
2022-11-12T05:13:04.931Z,24.00
2022-11-12T05:13:58.913Z,23.83
2022-11-12T05:14:52.895Z,23.79
2022-11-12T05:15:39.916Z,23.66
2022-11-12T05:16:13.977Z,23.55
2022-11-12T05:17:00.921Z,23.81
2022-11-12T05:17:34.997Z,25.05
2022-11-12T05:18:21.936Z,25.67
2022-11-12T05:18:55.964Z,25.09
2022-11-12T05:19:42.919Z,26.01
2022-11-12T05:20:20.939Z,28.29
2022-11-12T05:21:00.915Z,29.21
2022-11-12T05:21:59.823Z,28.09
2022-11-12T05:22:47.707Z,28.54
2022-11-12T05:23:35.197Z,30.15
2022-11-12T05:24:33.987Z,30.05
2022-11-12T05:25:15.989Z,29.63
2022-11-12T05:25:56.890Z,28.74
2022-11-12T05:26:36.912Z,28.67
2022-11-12T05:27:14.000Z,28.60
2022-11-12T05:28:00.900Z,26.96
2022-11-12T05:28:34.929Z,26.75
2022-11-12T05:29:21.914Z,27.01
2022-11-12T05:29:55.935Z,24.91
2022-11-12T05:30:42.910Z,24.84
2022-11-12T05:31:16.951Z,24.15
2022-11-12T05:31:56.915Z,23.41
2022-11-12T05:32:37.454Z,23.41
2022-11-12T05:33:17.878Z,23.42
2022-11-12T05:33:57.929Z,23.23
2022-11-12T05:34:37.883Z,23.49
2022-11-12T05:35:17.924Z,22.94
2022-11-12T05:35:57.895Z,24.42
2022-11-12T05:36:37.927Z,25.30
2022-11-12T05:37:21.925Z,25.54
2022-11-12T05:38:01.981Z,26.69
2022-11-12T05:38:41.878Z,27.90
2022-11-12T05:39:21.957Z,26.90
2022-11-12T05:40:01.888Z,26.10
2022-11-12T05:40:41.952Z,26.05
2022-11-12T05:41:21.880Z,25.34
2022-11-12T05:42:16.851Z,24.58
2022-11-12T05:42:56.906Z,24.45
2022-11-12T05:43:37.023Z,25.80
2022-11-12T05:44:16.892Z,27.01
2022-11-12T05:44:57.007Z,27.01
2022-11-12T05:45:36.873Z,25.83
2022-11-12T05:46:16.927Z,24.44
2022-11-12T05:46:57.874Z,23.75
2022-11-12T05:47:37.925Z,22.15
2022-11-12T05:48:23.970Z,21.61
2022-11-12T05:49:04.941Z,22.24
2022-11-12T05:49:44.875Z,21.84
2022-11-12T05:50:26.253Z,22.45
2022-11-12T05:51:13.332Z,23.88
2022-11-12T05:51:53.907Z,24.35
2022-11-12T05:52:34.859Z,24.77
2022-11-12T05:53:14.962Z,27.15
2022-11-12T05:53:54.897Z,29.60
2022-11-12T05:54:34.932Z,29.77
2022-11-12T05:55:15.879Z,28.13
2022-11-12T05:55:55.991Z,26.33
2022-11-12T05:56:35.870Z,25.52
2022-11-12T05:57:15.916Z,24.11
2022-11-12T05:57:56.859Z,25.21
2022-11-12T05:58:36.903Z,24.60
2022-11-12T05:59:19.881Z,24.15
2022-11-12T05:59:59.945Z,24.56
2022-11-12T06:00:45.876Z,25.86
2022-11-12T06:01:25.948Z,28.39
2022-11-12T06:02:05.941Z,30.05
2022-11-12T06:02:45.990Z,30.20
2022-11-12T06:03:26.868Z,29.79
2022-11-12T06:04:06.921Z,29.84
2022-11-12T06:04:46.876Z,27.34
2022-11-12T06:05:27.209Z,24.79
2022-11-12T06:06:07.859Z,27.05
2022-11-12T06:07:01.921Z,28.00
2022-11-12T06:07:55.855Z,25.52
2022-11-12T06:08:49.861Z,21.88
2022-11-12T06:09:43.867Z,19.64
2022-11-12T06:10:23.908Z,17.56
2022-11-12T06:11:03.891Z,20.61
2022-11-12T06:11:44.874Z,21.27
2022-11-12T06:12:24.903Z,19.61
2022-11-12T06:13:05.843Z,22.35
2022-11-12T06:13:45.936Z,24.80
2022-11-12T06:14:25.863Z,24.66
2022-11-12T06:15:05.897Z,25.52
2022-11-12T06:15:45.877Z,25.42
2022-11-12T06:16:39.859Z,25.46
2022-11-12T06:17:33.850Z,25.31
2022-11-12T06:18:28.031Z,24.34
2022-11-12T06:19:21.840Z,23.61
2022-11-12T06:20:15.836Z,23.51
2022-11-12T06:21:26.871Z,23.45
2022-11-12T06:22:00.886Z,23.13
2022-11-12T06:22:47.845Z,21.56
2022-11-12T06:23:22.046Z,20.67
2022-11-12T06:24:08.852Z,20.04
2022-11-12T06:24:42.865Z,17.17
2022-11-12T06:25:29.829Z,15.15
2022-11-12T06:26:03.947Z,15.71
2022-11-12T06:26:50.851Z,15.91
2022-11-12T06:27:24.859Z,15.82
2022-11-12T06:28:11.892Z,16.04
2022-11-12T06:28:45.956Z,15.59
2022-11-12T06:29:32.841Z,16.23
2022-11-12T06:30:06.892Z,16.30
2022-11-12T06:30:53.829Z,16.25
2022-11-12T06:31:28.948Z,15.91
2022-11-12T06:32:15.834Z,16.35
2022-11-12T06:32:53.890Z,15.95
2022-11-12T06:33:40.810Z,16.31
2022-11-12T06:34:14.927Z,16.49
2022-11-12T06:35:01.840Z,16.45
2022-11-12T06:35:39.099Z,16.35
2022-11-12T06:36:30.875Z,16.15
2022-11-12T06:37:04.867Z,15.65
2022-11-12T06:37:44.844Z,15.20
2022-11-12T06:38:25.216Z,15.50
2022-11-12T06:39:05.814Z,15.00
2022-11-12T06:39:45.872Z,15.80
2022-11-12T06:40:26.803Z,18.38
2022-11-12T06:41:06.875Z,18.83
2022-11-12T06:41:46.837Z,21.26
2022-11-12T06:42:26.870Z,21.51
2022-11-12T06:43:06.844Z,19.81
2022-11-12T06:43:47.945Z,20.80
2022-11-12T06:44:27.825Z,20.40
2022-11-12T06:45:07.867Z,20.89
2022-11-12T06:45:48.807Z,21.38
2022-11-12T06:46:28.881Z,20.38
2022-11-12T06:47:09.841Z,21.24
2022-11-12T06:47:49.911Z,21.11
2022-11-12T06:48:29.842Z,20.41
2022-11-12T06:49:09.927Z,20.80
2022-11-12T06:49:49.828Z,20.75
2022-11-12T06:50:29.884Z,20.49
2022-11-12T06:51:17.832Z,19.56
2022-11-12T06:51:58.932Z,19.81
2022-11-12T06:52:39.805Z,19.94
2022-11-12T06:53:19.835Z,20.39
2022-11-12T06:54:02.876Z,19.76
2022-11-12T06:54:42.908Z,20.04
2022-11-12T06:55:22.807Z,20.73
2022-11-12T06:56:09.963Z,21.41
2022-11-12T06:56:51.813Z,20.75
2022-11-12T06:57:32.431Z,20.80
2022-11-12T06:58:12.790Z,21.46
2022-11-12T06:58:52.869Z,21.27
2022-11-12T06:59:32.800Z,21.92
2022-11-12T07:00:13.847Z,22.11
2022-11-12T07:00:54.817Z,22.21
2022-11-12T07:01:34.886Z,22.38
2022-11-12T07:03:20.848Z,24.19
2022-11-12T07:04:01.810Z,28.15
2022-11-12T07:04:48.837Z,28.29
2022-11-12T07:05:42.800Z,27.42
2022-11-12T07:06:36.936Z,28.35
2022-11-12T07:07:30.898Z,31.06
2022-11-12T07:08:25.017Z,31.88
2022-11-12T07:09:19.808Z,31.01
2022-11-12T07:10:06.816Z,31.49
2022-11-12T07:10:47.836Z,31.17
2022-11-12T07:11:27.785Z,31.25
2022-11-12T07:12:08.853Z,29.70
2022-11-12T07:12:53.562Z,27.48
2022-11-12T07:13:37.890Z,31.19
2022-11-12T07:14:17.821Z,33.51
2022-11-12T07:14:57.847Z,32.26
2022-11-12T07:15:38.848Z,26.08
2022-11-12T07:16:22.335Z,23.98
2022-11-12T07:17:02.778Z,23.42
2022-11-12T07:17:43.815Z,23.13
2022-11-12T07:18:24.011Z,24.21
2022-11-12T07:19:04.198Z,26.38
2022-11-12T07:19:44.817Z,27.85
2022-11-12T07:20:26.865Z,30.26
2022-11-12T07:21:14.800Z,33.32
2022-11-12T07:21:54.834Z,36.06
2022-11-12T07:22:34.801Z,39.14
2022-11-12T07:23:14.829Z,39.05
2022-11-12T07:23:54.786Z,40.76
2022-11-12T07:24:35.871Z,42.15
2022-11-12T07:25:16.781Z,41.55
2022-11-12T07:26:11.854Z,40.36
2022-11-12T07:26:52.799Z,39.59
2022-11-12T07:27:36.814Z,39.85
2022-11-12T07:28:17.787Z,39.79
2022-11-12T07:28:58.872Z,39.40
2022-11-12T07:29:47.992Z,39.54
2022-11-12T07:30:28.922Z,38.72
2022-11-12T07:31:13.785Z,38.31
2022-11-12T07:32:00.809Z,38.64
2022-11-12T07:32:38.527Z,37.31
2022-11-12T07:33:28.796Z,37.11
2022-11-12T07:34:03.190Z,37.30
2022-11-12T07:34:49.780Z,35.79
2022-11-12T07:35:23.451Z,34.63
2022-11-12T07:36:18.790Z,34.54
2022-11-12T07:36:53.487Z,34.78
2022-11-12T07:37:36.783Z,34.58
2022-11-12T07:38:11.847Z,34.46
2022-11-12T07:38:45.752Z,33.41
2022-11-12T07:39:25.785Z,33.30
2022-11-12T07:40:00.138Z,32.49
2022-11-12T07:40:35.602Z,32.59
2022-11-12T07:41:27.774Z,32.08
2022-11-12T07:42:01.835Z,30.55
2022-11-12T07:42:44.806Z,30.65
2022-11-12T07:43:26.823Z,30.81
2022-11-12T07:44:06.792Z,30.70
2022-11-12T07:44:47.784Z,30.96
2022-11-12T07:45:27.759Z,30.34
2022-11-12T07:46:15.931Z,28.55
2022-11-12T07:46:55.762Z,27.34
2022-11-12T07:47:36.808Z,27.31
2022-11-12T07:48:16.800Z,25.76
2022-11-12T07:48:57.895Z,25.29
2022-11-12T07:49:38.788Z,25.41
2022-11-12T07:50:20.803Z,25.64
2022-11-12T07:51:13.865Z,24.27
2022-11-12T07:51:47.792Z,23.02
2022-11-12T07:52:34.778Z,21.69
2022-11-12T07:53:08.826Z,21.76
2022-11-12T07:53:53.733Z,21.17
2022-11-12T07:54:39.806Z,20.38
2022-11-12T07:55:19.759Z,20.55
2022-11-12T07:56:05.799Z,20.55
2022-11-12T07:56:45.740Z,20.01
2022-11-12T07:57:25.884Z,19.66
2022-11-12T07:58:07.794Z,19.92
2022-11-12T07:58:48.183Z,20.15
2022-11-12T07:59:29.776Z,20.49
2022-11-12T08:00:12.178Z,20.10
2022-11-12T08:00:51.769Z,19.09
2022-11-12T08:01:45.855Z,19.02
2022-11-12T08:02:26.767Z,18.63
2022-11-12T08:03:06.831Z,18.46
2022-11-12T08:03:46.733Z,18.46
2022-11-12T08:04:26.784Z,18.69
2022-11-12T08:05:12.974Z,18.98
2022-11-12T08:05:56.076Z,19.54
2022-11-12T08:06:37.877Z,18.91
2022-11-12T08:07:17.990Z,18.83
2022-11-12T08:07:58.875Z,19.52
2022-11-12T08:08:39.795Z,20.20
2022-11-12T08:09:20.736Z,20.19
2022-11-12T08:10:00.786Z,19.81
2022-11-12T08:10:41.765Z,19.64
2022-11-12T08:11:21.788Z,19.35
2022-11-12T08:12:01.747Z,19.96
2022-11-12T08:12:42.800Z,19.76
2022-11-12T08:13:23.733Z,19.24
2022-11-12T08:14:03.790Z,19.25
2022-11-12T08:14:43.739Z,19.44
2022-11-12T08:15:23.858Z,18.77
2022-11-12T08:16:05.812Z,19.19
2022-11-12T08:16:47.010Z,19.94
2022-11-12T08:17:29.750Z,18.64
2022-11-12T08:18:09.905Z,18.17
2022-11-12T08:18:51.723Z,17.90
2022-11-12T08:19:31.773Z,18.39
2022-11-12T08:20:13.737Z,18.41
2022-11-12T08:20:53.796Z,18.40
2022-11-12T08:21:35.765Z,18.14
2022-11-12T08:22:15.771Z,18.96
2022-11-12T08:22:55.711Z,19.84
2022-11-12T08:23:36.771Z,21.79
2022-11-12T08:24:17.723Z,22.77
2022-11-12T08:24:57.777Z,23.84
2022-11-12T08:25:39.740Z,23.77
2022-11-12T08:26:23.216Z,23.20
2022-11-12T08:27:04.760Z,22.90
2022-11-12T08:27:45.773Z,22.76
2022-11-12T08:28:28.032Z,22.94
2022-11-12T08:29:10.774Z,22.30
2022-11-12T08:29:51.717Z,21.51
2022-11-12T08:30:33.806Z,21.25
2022-11-12T08:31:28.737Z,19.52
2022-11-12T08:32:15.755Z,17.38
2022-11-12T08:33:14.749Z,16.58
2022-11-12T08:34:22.695Z,16.04
2022-11-12T08:35:16.719Z,15.40
2022-11-12T08:36:11.721Z,14.70
2022-11-12T08:37:06.745Z,14.13
2022-11-12T08:37:49.067Z,13.74
2022-11-12T08:38:29.079Z,13.88
2022-11-12T08:39:10.720Z,14.43
2022-11-12T08:39:50.782Z,14.36
2022-11-12T08:40:34.725Z,13.75
2022-11-12T08:41:18.757Z,14.16
2022-11-12T08:41:58.711Z,13.69
2022-11-12T08:42:39.756Z,14.14
2022-11-12T08:43:19.712Z,14.55
2022-11-12T08:44:04.142Z,13.75
2022-11-12T08:44:47.751Z,13.91
2022-11-12T08:45:27.815Z,14.04
2022-11-12T08:46:08.720Z,14.18
2022-11-12T08:46:48.975Z,14.24
2022-11-12T08:47:28.684Z,13.80
2022-11-12T08:48:14.254Z,14.45
2022-11-12T08:48:54.701Z,14.76
2022-11-12T08:49:34.749Z,14.73
2022-11-12T08:50:15.683Z,14.45
2022-11-12T08:50:56.760Z,14.95
2022-11-12T08:51:36.717Z,15.65
2022-11-12T08:52:17.761Z,16.10
2022-11-12T08:52:57.695Z,16.84
2022-11-12T08:53:38.763Z,16.79
2022-11-12T08:54:19.707Z,15.44
2022-11-12T08:54:59.728Z,16.65
2022-11-12T08:55:41.707Z,17.23
2022-11-12T08:56:21.782Z,17.55
2022-11-12T08:57:01.685Z,17.15
2022-11-12T08:57:49.848Z,16.89
2022-11-12T08:58:31.708Z,16.51
2022-11-12T08:59:11.740Z,17.15
2022-11-12T08:59:51.712Z,17.15
2022-11-12T09:00:31.715Z,17.39
2022-11-12T09:01:13.717Z,16.71
2022-11-12T09:01:53.772Z,16.23
2022-11-12T09:02:33.683Z,16.75
2022-11-12T09:03:22.732Z,17.24
2022-11-12T09:04:02.723Z,17.21
2022-11-12T09:04:42.739Z,18.29
2022-11-12T09:05:23.737Z,18.48
2022-11-12T09:06:03.815Z,17.90
2022-11-12T09:06:43.702Z,19.41
2022-11-12T09:08:30.024Z,18.48
2022-11-12T09:09:10.800Z,17.74
2022-11-12T09:09:50.685Z,16.89
2022-11-12T09:10:38.735Z,15.86
2022-11-12T09:11:32.716Z,15.60
2022-11-12T09:12:26.820Z,15.43
2022-11-12T09:13:23.759Z,15.07
2022-11-12T09:14:17.832Z,14.20
2022-11-12T09:16:16.731Z,13.38
2022-11-12T09:16:58.766Z,13.16
2022-11-12T09:17:41.709Z,13.38
2022-11-12T09:18:25.129Z,13.74
2022-11-12T09:19:06.700Z,13.25